x

West Bermuda - 240 Nm West Of Bermuda (41048) Wave Buoy

12:50pm - Sun 26th Apr 2015 All times are UTC.

  • Sig Wave height 8.5ft
  • Peak Period 7s
  • Average Period 6s
  • Wind
    22mph, 27mph gusts
  • Sea Temp 69°f
  • Air Temp 69°f
  • Sea Pressure 1002.7mb

More Historic Weather Station data

Upgrade to MSW Pro to gain access to the past 30 days of data for over 8000 Wavebouys and Weather Stations around the globe.

Join Pro

Comparision Forecast

View Surf forecast
   
Sun 04/26 12:50pm 8.5ft 7s 6s 22 27 mph 1002.7mb 69f 69f
11:50am 7.5ft 7s 6s 31 40 mph 1001.8mb 69f 71f
10:50am 8.5ft 7s 6s 25 29 mph 1002mb 69f 71f
9:50am 8ft 7s 6s 25 31 mph 1002.6mb 69f 70f
8:50am 8ft 6s 6s 27 34 mph 1003.3mb 69f 69f
7:50am 7ft 6s 5s 27 31 mph 1004.1mb 69f 69f
6:50am 7ft 6s 5s 27 34 mph 1005.6mb 69f 69f
5:50am 6ft 6s 5s 25 31 mph 1006.4mb 69f 68f
4:50am 6ft 9s 6s 25 29 mph 1008.5mb 69f 68f
3:50am 6ft 10s 6s 22 27 mph 1009.5mb 69f 67f
2:50am 5.5ft 10s 6s 22 25 mph 1010.3mb 69f 66f
1:50am 5.5ft 9s 6s 18 22 mph 1011.1mb 69f 66f
12:50am 5.5ft 8s 6s 18 22 mph 1011.6mb 69f 65f
Sat 04/25 11:50pm 6ft 9s 6s 16 20 mph 1012.2mb 70f 65f
10:50pm 6.5ft 10s 6s 16 20 mph 1013.3mb 70f 65f
9:50pm 6.5ft 10s 7s 13 16 mph 1013.6mb 70f 65f
8:50pm 6.5ft 8s 7s 11 13 mph 1014.1mb 70f 65f
7:50pm 7ft 10s 7s 11 16 mph 1014.1mb 70f 65f
6:50pm 7.5ft 8s 7s 9 13 mph 1014.4mb 70f 65f
5:50pm 7ft 10s 7s 7 9 mph 1015mb 70f 64f
4:50pm 8ft 10s 7s 4 7 mph 1015.1mb 70f 64f
3:50pm 8ft 10s 7s 4 9 mph 1015.2mb 70f 64f
2:50pm 8ft 8s 7s 9 13 mph 1015.7mb 69f 63f
1:50pm 8ft 9s 7s 11 13 mph 1015.8mb 69f 63f
12:50pm 8.5ft 10s 7s 18 20 mph 1015.5mb 69f 63f
11:50am 8.5ft 10s 7s 20 25 mph 1015.5mb 69f 63f
10:50am 9ft 11s 7s 20 27 mph 1015.4mb 69f 63f
9:50am 9.5ft 9s 7s 22 29 mph 1014.4mb 69f 63f
8:50am 10ft 11s 7s 20 29 mph 1013.5mb 69f 62f
7:50am 9.5ft 11s 7s 22 27 mph 1013.4mb 70f 63f
6:50am 9ft 9s 7s 25 29 mph 1013.8mb 70f 63f
5:50am 7ft 9s 6s 22 29 mph 1013.7mb 70f 63f
4:50am 6ft 6s 5s 25 31 mph 1013.7mb 70f 64f
3:50am 6.5ft 6s 5s 22 27 mph 1013.8mb 70f 64f
2:50am 6ft 5s 5s 20 25 mph 1013.7mb 70f 64f
1:50am 6.5ft 9s 5s 22 27 mph 1013.4mb 70f 65f
12:50am 6ft 7s 5s 20 27 mph 1012.9mb 70f 65f
Fri 04/24 11:50pm 6ft 7s 5s 20 29 mph 1011.7mb 70f 65f
10:50pm 5.5ft 8s 5s 22 29 mph 1010.7mb 70f 65f
9:50pm 5.5ft 14s 6s 22 27 mph 1010.2mb 70f 66f
8:50pm 5ft 8s 6s 25 29 mph 1009.4mb 71f 67f
7:50pm 5ft 8s 6s 7 9 mph 1009.2mb 71f 69f
6:50pm 5ft 8s 6s 4
mph
1009.3mb 71f 70f
5:50pm 5.5ft 8s 7s 4 7 mph 1009.8mb 71f 70f
4:50pm 5.5ft 8s 7s 4 7 mph 1010.4mb 70f 69f
3:50pm 5ft 8s 6s 11 16 mph 1010.3mb 70f 67f
2:50pm 5ft 8s 6s 9 13 mph 1011mb 70f 67f
1:50pm 5.5ft 13s 6s 7 9 mph 1011.6mb 70f 66f
12:50pm 5.5ft 13s 6s 11 13 mph 1011.2mb 70f 67f
11:50am 5ft 8s 6s 9 11 mph 1011.4mb 70f 66f
10:50am 6ft 14s 6s 13 16 mph 1011.5mb 70f 66f
9:50am 6ft 7s 6s 16 18 mph 1011mb 70f 66f
8:50am 6.5ft 9s 6s 18 20 mph 1011mb 70f 67f
7:50am 7ft 15s 6s 20 25 mph 1011.1mb 70f 67f
6:50am 6ft 7s 6s 20 25 mph 1010.9mb 70f 68f
5:50am 6ft 8s 6s 18 22 mph 1010mb 70f 71f
4:50am 6ft 14s 6s 18 22 mph 1010.1mb 71f 71f
3:50am 6ft 14s 6s 18 20 mph 1010.4mb 71f 71f
2:50am 6ft 15s 6s 16 20 mph 1011.1mb 71f 71f
1:50am 6ft 15s 7s 16 18 mph 1011.3mb 71f 71f
12:50am 6.5ft 14s 7s 13 16 mph 1011.4mb 71f 72f
Thu 04/23 11:50pm 6ft 8s 6s 13 18 mph 1010.9mb 71f 71f
10:50pm 6ft 8s 7s 13 16 mph 1010.8mb 71f 71f
9:50pm 6ft 14s 7s 13 16 mph 1010.9mb 71f 71f
8:50pm 6ft 13s 7s 13 16 mph 1011.2mb 71f 72f
7:50pm 6ft 15s 7s 13 16 mph 1011.2mb 71f 72f
6:50pm 6ft 15s 7s 11 16 mph 1011.7mb 71f 72f
5:50pm 6ft 15s 7s 9 11 mph 1012.2mb 71f 71f
4:50pm 6ft 15s 7s 9 11 mph 1012.4mb 71f 71f
3:50pm 5.5ft 15s 7s 13 16 mph 1013mb 70f 71f
2:50pm 5ft 16s 6s 13 16 mph 1013mb 70f 71f
1:50pm 5ft 15s 6s 11 13 mph 1013.1mb 70f 71f
12:50pm 5.5ft 15s 7s 11 13 mph 1013mb 70f 71f
11:50am 5ft 11s 6s 9 11 mph 1013.3mb 70f 71f
10:50am 5ft 12s 6s 11 13 mph 1013.4mb 70f 71f
Wed 04/22 2:50pm 4ft 7s 6s 7 9 mph 1014.3mb 72f 73f